createdAt,value
2022-08-17T00:00:43.125Z,99526.78
2022-08-17T00:05:43.974Z,99523.50
2022-08-17T00:10:45.585Z,99526.31
2022-08-17T00:15:47.151Z,99525.16
2022-08-17T00:20:48.553Z,99523.25
2022-08-17T00:25:49.998Z,99529.88
2022-08-17T00:30:53.404Z,99540.31
2022-08-17T00:35:55.828Z,99537.31
2022-08-17T00:41:02.869Z,99526.56
2022-08-17T00:46:09.433Z,99540.06
2022-08-17T00:51:23.487Z,99527.66
2022-08-17T00:56:34.809Z,99534.00
2022-08-17T01:01:36.355Z,99532.09
2022-08-17T01:06:39.346Z,99535.44
2022-08-17T01:11:40.819Z,99531.56
2022-08-17T01:16:42.247Z,99533.22
2022-08-17T01:22:05.108Z,99542.88
2022-08-17T01:27:10.454Z,99547.50
2022-08-17T01:32:12.418Z,99532.34
2022-08-17T01:37:14.487Z,99533.69
2022-08-17T01:42:34.931Z,99545.00
2022-08-17T01:47:37.274Z,99543.34
2022-08-17T01:52:38.725Z,99550.00
2022-08-17T01:57:40.221Z,99551.59
2022-08-17T02:02:41.638Z,99554.88
2022-08-17T02:08:00.225Z,99551.88
2022-08-17T02:13:02.984Z,99567.03
2022-08-17T02:18:05.584Z,99558.78
2022-08-17T02:23:08.761Z,99562.34
2022-08-17T02:28:10.469Z,99550.50
2022-08-17T02:33:11.904Z,99544.13
2022-08-17T02:38:13.373Z,99549.38
2022-08-17T02:43:14.823Z,99545.28
2022-08-17T02:48:16.229Z,99545.84
2022-08-17T02:53:35.615Z,99549.69
2022-08-17T02:58:37.618Z,99554.38
2022-08-17T03:03:39.166Z,99542.25
2022-08-17T03:08:40.666Z,99545.00
2022-08-17T03:13:42.091Z,99546.94
2022-08-17T03:18:43.515Z,99539.28
2022-08-17T03:23:44.911Z,99538.41
2022-08-17T03:28:46.662Z,99530.78
2022-08-17T03:33:48.118Z,99532.66
2022-08-17T03:38:49.516Z,99535.75
2022-08-17T03:43:52.565Z,99535.66
2022-08-17T03:49:12.898Z,99532.97
2022-08-17T03:54:32.617Z,99526.88
2022-08-17T03:59:34.104Z,99521.13
2022-08-17T04:04:35.993Z,99535.44
2022-08-17T04:09:37.479Z,99531.56
2022-08-17T04:14:52.296Z,99537.16
2022-08-17T04:19:55.780Z,99535.25
2022-08-17T04:24:57.184Z,99539.03
2022-08-17T04:30:00.603Z,99545.69
2022-08-17T04:35:02.013Z,99551.72
2022-08-17T04:40:22.366Z,99553.41
2022-08-17T04:45:27.313Z,99558.63
2022-08-17T04:50:35.136Z,99558.88
2022-08-17T04:55:36.600Z,99563.28
2022-08-17T05:00:38.062Z,99563.13
2022-08-17T05:05:42.968Z,99573.22
2022-08-17T05:10:45.231Z,99568.06
2022-08-17T05:15:48.125Z,99573.47
2022-08-17T05:20:50.032Z,99585.88
2022-08-17T05:25:58.140Z,99584.53
2022-08-17T05:31:01.134Z,99590.59
2022-08-17T05:36:03.693Z,99575.69
2022-08-17T05:41:06.358Z,99583.13
2022-08-17T05:46:11.088Z,99579.00
2022-08-17T05:51:20.885Z,99582.81
2022-08-17T05:56:37.277Z,99583.69
2022-08-17T06:02:08.538Z,99586.94
2022-08-17T06:07:24.700Z,99587.81
2022-08-17T06:13:07.364Z,99591.59
2022-08-17T06:18:09.430Z,99594.34
2022-08-17T06:23:14.138Z,99596.59
2022-08-17T06:28:22.135Z,99591.38
2022-08-17T06:33:37.882Z,99599.91
2022-08-17T06:38:53.429Z,99600.47
2022-08-17T06:44:09.859Z,99606.50
2022-08-17T06:49:26.126Z,99604.28
2022-08-17T06:54:49.626Z,99609.50
2022-08-17T07:00:18.285Z,99598.72
2022-08-17T07:05:21.484Z,99595.97
2022-08-17T07:10:23.997Z,99603.13
2022-08-17T07:15:33.869Z,99603.44
2022-08-17T07:20:35.281Z,99601.78
2022-08-17T07:25:36.688Z,99599.06
2022-08-17T07:30:48.777Z,99607.56
2022-08-17T07:35:50.400Z,99613.66
2022-08-17T07:40:58.043Z,99609.06
2022-08-17T07:46:22.038Z,99614.81
2022-08-17T07:51:28.424Z,99615.38
2022-08-17T07:56:41.053Z,99617.84
2022-08-17T08:01:48.960Z,99617.50
2022-08-17T08:06:59.395Z,99605.94
2022-08-17T08:12:35.161Z,99601.81
2022-08-17T08:17:55.378Z,99601.00
2022-08-17T08:23:10.939Z,99612.28
2022-08-17T08:28:24.821Z,99608.16
2022-08-17T08:34:09.172Z,99603.75
2022-08-17T08:39:58.375Z,99611.22
2022-08-17T08:45:15.980Z,99609.00
2022-08-17T08:50:31.806Z,99608.16
2022-08-17T08:56:14.580Z,99603.53
2022-08-17T09:01:57.845Z,99600.69
2022-08-17T09:07:09.278Z,99595.22
2022-08-17T09:12:21.189Z,99596.31
2022-08-17T09:17:34.001Z,99607.03
2022-08-17T09:22:42.595Z,99600.13
2022-08-17T09:28:04.485Z,99595.19
2022-08-17T09:33:09.899Z,99589.69
2022-08-17T09:38:17.141Z,99595.63
2022-08-17T09:43:30.712Z,99581.16
2022-08-17T09:48:57.385Z,99572.56
2022-08-17T09:54:14.780Z,99578.00
2022-08-17T09:59:38.582Z,99571.84
2022-08-17T10:05:02.181Z,99564.63
2022-08-17T10:10:08.658Z,99557.31
2022-08-17T10:15:34.468Z,99551.88
2022-08-17T10:20:49.582Z,99545.91
2022-08-17T10:26:12.799Z,99559.72
2022-08-17T10:31:34.635Z,99554.81
2022-08-17T10:36:43.049Z,99556.50
2022-08-17T10:41:47.099Z,99554.63
2022-08-17T10:46:57.497Z,99549.09
2022-08-17T10:52:00.758Z,99538.63
2022-08-17T10:57:02.169Z,99540.91
2022-08-17T11:02:17.729Z,99545.78
2022-08-17T11:07:51.213Z,99529.31
2022-08-17T11:13:10.850Z,99533.44
2022-08-17T11:18:20.254Z,99521.25
2022-08-17T11:23:33.591Z,99519.72
2022-08-17T11:28:45.919Z,99511.13
2022-08-17T11:34:21.183Z,99512.44
2022-08-17T11:39:32.340Z,99517.94
2022-08-17T11:44:59.350Z,99523.75
2022-08-17T11:50:38.741Z,99499.75
2022-08-17T11:55:44.410Z,99510.25
2022-08-17T12:00:46.243Z,99509.16
2022-08-17T12:05:47.679Z,99501.19
2022-08-17T12:10:56.402Z,99499.78
2022-08-17T12:15:57.831Z,99497.06
2022-08-17T12:21:22.470Z,99479.94
2022-08-17T12:26:34.476Z,99473.31
2022-08-17T12:31:43.069Z,99477.78
2022-08-17T12:36:44.533Z,99479.63
2022-08-17T12:41:47.277Z,99473.34
2022-08-17T12:47:01.683Z,99470.34
2022-08-17T12:52:07.021Z,99465.94
2022-08-17T12:57:17.700Z,99465.59
2022-08-17T13:02:28.194Z,99465.94
2022-08-17T13:07:32.529Z,99467.47
2022-08-17T13:12:34.836Z,99455.69
2022-08-17T13:17:36.570Z,99462.78
2022-08-17T13:22:37.993Z,99475.31
2022-08-17T13:27:39.399Z,99464.41
2022-08-17T13:32:43.576Z,99462.28
2022-08-17T13:38:01.146Z,99471.69
2022-08-17T13:43:03.327Z,99474.22
2022-08-17T13:48:08.686Z,99478.91
2022-08-17T13:53:31.061Z,99482.00
2022-08-17T13:58:40.593Z,99475.84
2022-08-17T14:03:42.147Z,99464.50
2022-08-17T14:08:45.794Z,99464.38
2022-08-17T14:13:47.201Z,99466.13
2022-08-17T14:18:56.956Z,99462.53
2022-08-17T14:23:58.812Z,99463.44
2022-08-17T14:29:00.220Z,99467.63
2022-08-17T14:34:01.988Z,99451.34
2022-08-17T14:39:03.689Z,99436.22
2022-08-17T14:44:05.245Z,99421.34
2022-08-17T14:49:07.801Z,99426.31
2022-08-17T14:54:09.866Z,99444.28
2022-08-17T14:59:11.265Z,99441.00
2022-08-17T15:04:16.953Z,99446.91
2022-08-17T15:09:18.377Z,99449.06
2022-08-17T15:14:19.912Z,99451.34
2022-08-17T15:19:21.313Z,99445.19
2022-08-17T15:24:22.733Z,99441.44
2022-08-17T15:29:24.157Z,99446.19
2022-08-17T15:34:25.565Z,99444.66
2022-08-17T15:39:27.025Z,99435.41
2022-08-17T15:44:32.437Z,99429.66
2022-08-17T15:49:39.739Z,99425.88
2022-08-17T15:54:41.134Z,99431.06
2022-08-17T15:59:47.166Z,99417.47
2022-08-17T16:04:53.630Z,99402.28
2022-08-17T16:09:55.722Z,99398.41
2022-08-17T16:14:57.273Z,99388.63
2022-08-17T16:19:58.872Z,99391.66
2022-08-17T16:25:02.605Z,99392.47
2022-08-17T16:30:05.529Z,99387.53
2022-08-17T16:35:09.330Z,99388.47
2022-08-17T16:40:11.471Z,99396.34
2022-08-17T16:45:24.905Z,99418.16
2022-08-17T16:50:26.581Z,99414.13
2022-08-17T16:55:27.989Z,99401.44
2022-08-17T17:00:29.820Z,99401.03
2022-08-17T17:05:43.033Z,99410.47
2022-08-17T17:10:49.382Z,99409.69
2022-08-17T17:16:03.593Z,99417.94
2022-08-17T17:21:06.146Z,99417.41
2022-08-17T17:26:22.681Z,99415.53
2022-08-17T17:31:25.208Z,99416.56
2022-08-17T17:36:50.899Z,99432.06
2022-08-17T17:41:54.678Z,99438.16
2022-08-17T17:47:00.457Z,99430.41
2022-08-17T17:52:19.443Z,99435.41
2022-08-17T17:57:44.029Z,99435.69
2022-08-17T18:03:04.257Z,99437.34
2022-08-17T18:08:16.567Z,99440.41
2022-08-17T18:13:26.563Z,99440.91
2022-08-17T18:18:46.824Z,99447.59
2022-08-17T18:24:05.081Z,99447.03
2022-08-17T18:29:12.548Z,99449.47
2022-08-17T18:39:47.406Z,99444.78
2022-08-17T18:44:54.313Z,99440.69
2022-08-17T18:49:58.408Z,99437.69
2022-08-17T18:55:22.997Z,99442.09
2022-08-17T19:00:30.329Z,99437.50
2022-08-17T19:05:37.025Z,99442.97
2022-08-17T19:10:46.993Z,99446.19
2022-08-17T19:16:19.667Z,99446.19
2022-08-17T19:21:27.229Z,99443.75
2022-08-17T19:26:53.662Z,99446.53
2022-08-17T19:31:52.805Z,99442.63
2022-08-17T19:36:58.688Z,99443.84
2022-08-17T19:42:06.673Z,99439.41
2022-08-17T19:47:11.678Z,99450.44
2022-08-17T19:52:26.300Z,99443.50
2022-08-17T19:57:47.256Z,99449.59
2022-08-17T20:03:16.396Z,99445.50
2022-08-17T20:08:20.803Z,99445.75
2022-08-17T20:13:52.249Z,99437.75
2022-08-17T20:19:19.869Z,99435.56
2022-08-17T20:24:41.665Z,99440.63
2022-08-17T20:29:55.201Z,99437.50
2022-08-17T20:35:24.327Z,99445.59
2022-08-17T20:40:35.042Z,99439.22
2022-08-17T20:45:52.570Z,99440.50
2022-08-17T20:50:56.500Z,99432.00
2022-08-17T20:55:57.935Z,99439.75
2022-08-17T21:01:00.629Z,99444.66
2022-08-17T21:06:16.829Z,99440.84
2022-08-17T21:11:57.260Z,99437.81
2022-08-17T21:17:07.238Z,99447.53
2022-08-17T21:22:36.861Z,99452.44
2022-08-17T21:28:01.321Z,99471.16
2022-08-17T21:33:24.779Z,99478.91
2022-08-17T21:38:37.307Z,99481.94
2022-08-17T21:43:46.042Z,99481.66
2022-08-17T21:48:49.187Z,99489.41
2022-08-17T21:54:00.046Z,99492.16
2022-08-17T21:59:08.563Z,99501.22
2022-08-17T22:04:11.159Z,99495.16
2022-08-17T22:09:21.437Z,99502.34
2022-08-17T22:14:27.260Z,99499.84
2022-08-17T22:20:14.318Z,99494.06
2022-08-17T22:25:20.633Z,99484.44
2022-08-17T22:30:26.209Z,99484.44
2022-08-17T22:35:34.494Z,99484.44
2022-08-17T22:40:35.895Z,99486.09
2022-08-17T22:45:41.473Z,99496.84
2022-08-17T22:50:42.874Z,99518.59
2022-08-17T22:56:13.032Z,99511.16
2022-08-17T23:01:28.922Z,99498.28
2022-08-17T23:06:33.553Z,99499.63
2022-08-17T23:11:48.740Z,99497.44
2022-08-17T23:16:51.152Z,99492.44
2022-08-17T23:21:54.062Z,99487.81
2022-08-17T23:26:56.958Z,99497.13
2022-08-17T23:31:59.631Z,99495.78
2022-08-17T23:37:02.127Z,99499.94
2022-08-17T23:42:05.209Z,99493.03
2022-08-17T23:47:07.620Z,99490.03
2022-08-17T23:52:12.462Z,99498.59
2022-08-17T23:57:18.254Z,99491.94
